Terminal Aerodrome Forecast
Issued by NWS Charleston, WV

Current Version | Previous Version | Text Only | Print | Product List | Glossary Off
Versions: 1 2 3 4 5 6 7 8 9 10 11 12 13 14 15 16 17 18 19 20 21 22 23 24 25 26 27 28

000
FTUS41 KRLX 060258 AAA
TAFCRW
TAF AMD
KCRW 060258Z 0603/0624 00000KT P6SM SCT030 SCT040 BKN190
     FM060600 00000KT 2SM BR OVC011
     FM061300 VRB03KT 3SM BR BKN010
     FM061400 VRB03KT 4SM SHRA BR OVC014
     FM061800 26005KT 6SM SHRA VCTS BKN024CB
     FM062000 25005KT P6SM VCTS BKN045CB
     FM062200 24004KT P6SM BKN040=

USA.gov is the U.S. government's official web portal to all federal, state and local government web resources and services.